Time;durP1;ratioP1;P1;durP2;ratioP2;P2;SDS_P1;SDS_P2;PMS_P1;PMS_P2;Temp;Humidity;BMP_temperature;BMP_pressure;BME280_temperature;BME280_humidity;BME280_pressure;Samples;Min_cycle;Max_cycle;Signal;HPM_P1;HPM_P2
2022/10/10 00:00:45;;;;;;;6.13;2.40;;;15.90;61.70;;;;;;4989769;28;20059;-73
2022/10/10 00:03:11;;;;;;;2.50;1.38;;;15.90;61.90;;;;;;4988037;28;20390;-74
2022/10/10 00:05:38;;;;;;;2.80;1.33;;;15.80;61.80;;;;;;4991224;28;20551;-75
2022/10/10 00:08:06;;;;;;;4.88;1.70;;;15.90;62.10;;;;;;4981289;28;20030;-75
2022/10/10 00:10:34;;;;;;;4.93;1.77;;;15.90;62.10;;;;;;4955485;28;20653;-75
2022/10/10 00:13:00;;;;;;;3.55;1.85;;;15.80;62.00;;;;;;5003181;28;20068;-73
2022/10/10 00:15:27;;;;;;;4.15;2.05;;;15.80;62.10;;;;;;4989854;28;20038;-74
2022/10/10 00:17:56;;;;;;;3.00;1.35;;;15.80;62.30;;;;;;4987160;28;20627;-74
2022/10/10 00:20:22;;;;;;;2.78;1.38;;;15.80;62.30;;;;;;4969894;28;20046;-75
2022/10/10 00:22:48;;;;;;;4.05;1.65;;;15.80;62.40;;;;;;4983551;28;20034;-75
2022/10/10 00:25:17;;;;;;;3.78;1.63;;;15.80;62.50;;;;;;4981668;28;20034;-75
2022/10/10 00:27:43;;;;;;;3.60;1.70;;;15.80;62.50;;;;;;4988832;28;20034;-75
2022/10/10 00:30:10;;;;;;;4.75;1.63;;;15.80;62.60;;;;;;4974542;28;20077;-75
2022/10/10 00:32:36;;;;;;;4.30;2.45;;;15.80;62.70;;;;;;4991649;28;20088;-75
2022/10/10 00:35:04;;;;;;;5.97;1.50;;;15.70;62.60;;;;;;4982285;28;20066;-76
2022/10/10 00:37:30;;;;;;;3.58;1.55;;;15.80;62.90;;;;;;4989014;28;20022;-74
2022/10/10 00:39:56;;;;;;;4.03;1.83;;;15.70;62.80;;;;;;4992487;28;20049;-76
2022/10/10 00:42:22;;;;;;;8.65;2.05;;;15.70;62.80;;;;;;4972032;28;20034;-74
2022/10/10 00:45:26;;;;;;;3.50;1.63;;;15.70;62.90;;;;;;4990239;28;20049;-75
2022/10/10 00:47:59;;;;;;;3.28;1.77;;;15.70;63.10;;;;;;4987611;28;20046;-75
2022/10/10 00:50:27;;;;;;;5.90;1.67;;;15.70;63.00;;;;;;4986884;28;20034;-76
2022/10/10 00:52:54;;;;;;;2.90;1.58;;;15.70;63.00;;;;;;4982448;28;20125;-76
2022/10/10 00:55:22;;;;;;;4.20;1.70;;;15.60;62.90;;;;;;4984835;28;20441;-75
2022/10/10 00:57:50;;;;;;;3.92;2.22;;;15.60;63.00;;;;;;4987536;28;20030;-75
2022/10/10 01:00:17;;;;;;;3.80;1.90;;;15.70;63.30;;;;;;4987864;28;20046;-75
2022/10/10 01:02:44;;;;;;;4.93;1.45;;;15.60;63.10;;;;;;5002642;28;20030;-75
2022/10/10 01:05:10;;;;;;;2.40;1.67;;;15.70;63.40;;;;;;4984776;28;20042;-75
2022/10/10 01:07:37;;;;;;;5.05;1.83;;;15.60;63.30;;;;;;4986874;28;20072;-75
2022/10/10 01:10:24;;;;;;;5.03;2.33;;;15.60;63.40;;;;;;4992270;28;20033;-74
2022/10/10 01:13:29;;;;;;;8.15;3.50;;;15.70;63.70;;;;;;4981936;28;20278;-75
2022/10/10 01:16:37;;;;;;;4.65;2.53;;;15.70;63.60;;;;;;4981130;28;20254;-74
2022/10/10 01:19:35;;;;;;;5.32;1.70;;;15.60;63.40;;;;;;4943120;28;20031;-75
2022/10/10 01:22:46;;;;;;;3.72;1.80;;;15.60;63.50;;;;;;4912919;29;20036;-74
2022/10/10 01:25:26;;;;;;;5.53;2.33;;;15.60;63.70;;;;;;4988315;28;20064;-75
2022/10/10 01:28:00;;;;;;;4.35;2.25;;;15.60;63.70;;;;;;4978027;28;20104;-75
2022/10/10 01:30:28;;;;;;;3.78;2.00;;;15.60;63.70;;;;;;4992570;28;20038;-75
2022/10/10 01:33:03;;;;;;;7.28;2.50;;;15.60;63.80;;;;;;4990649;28;20033;-74
2022/10/10 01:35:57;;;;;;;4.97;2.50;;;15.60;64.00;;;;;;4994694;28;20030;-75
2022/10/10 01:38:43;;;;;;;4.10;2.35;;;15.60;64.10;;;;;;4963853;28;20053;-75
2022/10/10 01:41:18;;;;;;;4.63;2.85;;;15.60;64.10;;;;;;4990965;28;20041;-74
2022/10/10 01:43:52;;;;;;;5.90;2.38;;;15.60;64.10;;;;;;4985671;28;20042;-75
2022/10/10 01:46:18;;;;;;;3.72;1.98;;;15.50;64.00;;;;;;4988566;28;20038;-74
2022/10/10 01:48:47;;;;;;;4.32;1.90;;;15.50;64.10;;;;;;5004943;28;20056;-75
2022/10/10 01:51:18;;;;;;;4.68;1.85;;;15.50;64.20;;;;;;4979739;28;20046;-75
2022/10/10 01:54:11;;;;;;;5.55;2.10;;;15.50;64.30;;;;;;4999623;28;20018;-75
2022/10/10 01:56:49;;;;;;;5.90;1.80;;;15.50;64.50;;;;;;4983045;28;20430;-74
2022/10/10 01:59:33;;;;;;;3.80;1.50;;;15.50;64.50;;;;;;4973669;28;20077;-75
2022/10/10 02:02:15;;;;;;;4.60;1.88;;;15.50;64.70;;;;;;4999439;28;20031;-75
2022/10/10 02:04:55;;;;;;;5.35;2.20;;;15.50;64.70;;;;;;4989756;28;20081;-75
2022/10/10 02:07:31;;;;;;;4.20;1.98;;;15.50;64.80;;;;;;4998608;28;20036;-74
2022/10/10 02:10:01;;;;;;;4.22;2.17;;;15.40;64.70;;;;;;4983476;28;20096;-75
2022/10/10 02:12:30;;;;;;;3.88;2.00;;;15.40;64.80;;;;;;4983251;28;20038;-75
2022/10/10 02:15:06;;;;;;;4.03;1.92;;;15.50;65.10;;;;;;4977912;28;20057;-75
2022/10/10 02:17:34;;;;;;;2.63;1.45;;;15.50;65.20;;;;;;4981083;28;20035;-73
2022/10/10 02:20:00;;;;;;;5.20;2.03;;;15.40;65.10;;;;;;4987060;28;20065;-74
2022/10/10 02:22:28;;;;;;;4.20;2.25;;;15.40;65.20;;;;;;4987210;28;20750;-74
2022/10/10 02:24:55;;;;;;;3.50;1.85;;;15.40;65.30;;;;;;4986606;28;20379;-74
2022/10/10 02:27:30;;;;;;;3.80;1.90;;;15.40;65.40;;;;;;4985486;28;20036;-75
2022/10/10 02:29:59;;;;;;;3.38;1.88;;;15.40;65.50;;;;;;5000231;28;20060;-74
2022/10/10 02:32:35;;;;;;;3.22;2.22;;;15.40;65.60;;;;;;4994143;28;20030;-75
2022/10/10 02:35:10;;;;;;;4.13;2.25;;;15.40;65.70;;;;;;4990510;28;20042;-73
2022/10/10 02:37:40;;;;;;;4.95;2.10;;;15.40;65.80;;;;;;4991027;28;20027;-74
2022/10/10 02:40:09;;;;;;;4.53;2.03;;;15.40;65.80;;;;;;4990875;28;20422;-74
2022/10/10 02:42:37;;;;;;;5.70;1.98;;;15.40;65.90;;;;;;4990534;28;20026;-73
2022/10/10 02:45:04;;;;;;;4.45;2.92;;;15.40;66.00;;;;;;4991632;28;20038;-77
2022/10/10 02:47:31;;;;;;;5.22;2.10;;;15.30;65.80;;;;;;4988635;28;20042;-75
2022/10/10 02:49:58;;;;;;;2.38;1.98;;;15.30;65.90;;;;;;4989618;28;20042;-74
2022/10/10 02:52:28;;;;;;;5.30;1.90;;;15.30;66.00;;;;;;4986432;28;20100;-74
2022/10/10 02:54:54;;;;;;;3.33;2.28;;;15.30;66.10;;;;;;4989488;28;20034;-74
2022/10/10 02:57:20;;;;;;;4.93;2.33;;;15.30;66.20;;;;;;4973318;28;20154;-75
2022/10/10 02:59:46;;;;;;;3.78;2.78;;;15.30;66.30;;;;;;4991002;28;20038;-75
2022/10/10 03:02:12;;;;;;;6.88;3.15;;;15.30;66.30;;;;;;4987144;28;20046;-74
2022/10/10 03:04:38;;;;;;;2.67;2.10;;;15.30;66.40;;;;;;4988536;28;20078;-74
2022/10/10 03:07:08;;;;;;;4.22;2.47;;;15.30;66.50;;;;;;4985622;28;20023;-75
2022/10/10 03:09:33;;;;;;;4.15;2.28;;;15.20;66.50;;;;;;4990572;28;20038;-75
2022/10/10 03:11:59;;;;;;;4.25;2.47;;;15.20;66.50;;;;;;4989861;28;20030;-74
2022/10/10 03:14:25;;;;;;;3.92;2.33;;;15.20;66.60;;;;;;4990814;28;20042;-74
2022/10/10 03:16:52;;;;;;;4.03;2.00;;;15.20;66.70;;;;;;4987125;28;20080;-75
2022/10/10 03:19:20;;;;;;;5.93;1.90;;;15.20;66.80;;;;;;4984034;28;20038;-75
2022/10/10 03:21:46;;;;;;;3.33;1.83;;;15.20;66.90;;;;;;4995493;28;20045;-75
2022/10/10 03:24:13;;;;;;;2.85;2.33;;;15.20;66.90;;;;;;4994151;28;20026;-75
2022/10/10 03:26:39;;;;;;;3.85;2.00;;;15.20;67.00;;;;;;4992587;28;20034;-74
2022/10/10 03:29:05;;;;;;;3.58;2.45;;;15.20;67.10;;;;;;4992003;28;20030;-77
2022/10/10 03:31:32;;;;;;;5.22;2.00;;;15.20;67.10;;;;;;4984410;28;20023;-74
2022/10/10 03:33:59;;;;;;;3.63;1.80;;;15.20;67.20;;;;;;4997557;28;20077;-75
2022/10/10 03:36:26;;;;;;;3.63;2.15;;;15.20;67.30;;;;;;4994355;28;20045;-73
2022/10/10 03:38:52;;;;;;;4.78;2.00;;;15.20;67.30;;;;;;4993210;28;20430;-74
2022/10/10 03:41:17;;;;;;;3.42;2.00;;;15.20;67.30;;;;;;4989220;28;20027;-73
2022/10/10 03:43:43;;;;;;;5.00;3.08;;;15.20;67.40;;;;;;4993361;28;20045;-74
2022/10/10 03:46:09;;;;;;;2.95;2.22;;;15.20;67.50;;;;;;4991064;28;20030;-74
2022/10/10 03:48:39;;;;;;;6.70;2.50;;;15.20;67.50;;;;;;4990760;28;20056;-74
2022/10/10 03:51:05;;;;;;;4.80;2.30;;;15.20;67.60;;;;;;4991408;28;20034;-75
2022/10/10 03:53:31;;;;;;;3.90;2.20;;;15.20;67.60;;;;;;4984721;28;20034;-75
2022/10/10 03:55:57;;;;;;;4.90;2.58;;;15.20;67.70;;;;;;4991939;28;20026;-74
2022/10/10 03:58:24;;;;;;;4.78;2.72;;;15.20;67.70;;;;;;4996196;28;20529;-73
2022/10/10 04:01:01;;;;;;;5.65;2.17;;;15.30;68.00;;;;;;4960328;28;20044;-74
2022/10/10 04:03:27;;;;;;;2.83;1.85;;;15.20;68.00;;;;;;4982645;28;20042;-74
2022/10/10 04:05:54;;;;;;;3.88;2.53;;;15.20;68.00;;;;;;5001351;28;20031;-75
2022/10/10 04:08:20;;;;;;;4.15;1.98;;;15.20;68.10;;;;;;4998571;28;20042;-74
2022/10/10 04:10:50;;;;;;;3.67;2.45;;;15.20;68.20;;;;;;4995287;28;20486;-77
2022/10/10 04:13:17;;;;;;;2.80;2.10;;;15.20;68.30;;;;;;4995532;28;20038;-75
2022/10/10 04:15:50;;;;;;;2.95;1.75;;;15.20;68.30;;;;;;5003713;28;20030;-75
2022/10/10 04:18:16;;;;;;;2.88;1.40;;;15.20;68.40;;;;;;4992224;28;20038;-75
2022/10/10 04:20:42;;;;;;;2.70;1.27;;;15.20;68.40;;;;;;4989086;28;20030;-74
2022/10/10 04:23:08;;;;;;;3.42;1.23;;;15.20;68.50;;;;;;4995332;28;20042;-75
2022/10/10 04:25:34;;;;;;;3.28;1.50;;;15.20;68.50;;;;;;4995823;28;20053;-75
2022/10/10 04:28:00;;;;;;;3.20;1.10;;;15.20;68.60;;;;;;4995354;28;20073;-74
2022/10/10 04:30:30;;;;;;;2.13;1.15;;;15.20;68.60;;;;;;4992799;28;20038;-75
2022/10/10 04:32:57;;;;;;;3.28;1.13;;;15.20;68.60;;;;;;4992857;28;20030;-75
2022/10/10 04:35:22;;;;;;;1.13;0.80;;;15.20;68.70;;;;;;4992493;28;20106;-73
2022/10/10 04:37:49;;;;;;;2.88;1.60;;;15.20;68.70;;;;;;4993025;28;20030;-73
2022/10/10 04:40:15;;;;;;;3.13;1.00;;;15.20;68.70;;;;;;5012471;28;20180;-73
2022/10/10 04:42:41;;;;;;;2.13;0.70;;;15.10;68.50;;;;;;4998214;28;20098;-74
2022/10/10 04:45:07;;;;;;;1.92;0.50;;;15.10;68.60;;;;;;5010905;28;20045;-75
2022/10/10 04:47:33;;;;;;;2.40;0.80;;;15.10;68.60;;;;;;5004971;28;20543;-74
2022/10/10 04:49:59;;;;;;;1.05;0.70;;;15.00;68.40;;;;;;5000887;28;20030;-74
2022/10/10 04:52:26;;;;;;;1.95;0.60;;;15.00;68.50;;;;;;4992157;28;20021;-74
2022/10/10 04:54:51;;;;;;;0.85;0.50;;;15.00;68.50;;;;;;5005747;28;20074;-74
2022/10/10 04:57:17;;;;;;;0.40;0.40;;;14.90;68.30;;;;;;5006577;28;20437;-73
2022/10/10 04:59:44;;;;;;;1.23;0.47;;;14.90;68.30;;;;;;5001863;28;20097;-74
2022/10/10 05:02:11;;;;;;;1.20;0.80;;;14.90;68.30;;;;;;5004728;28;20063;-74
2022/10/10 05:04:37;;;;;;;1.15;0.57;;;14.80;68.20;;;;;;4985673;28;20101;-73
2022/10/10 05:07:04;;;;;;;3.85;0.52;;;14.80;68.20;;;;;;5003860;28;20088;-74
2022/10/10 05:09:32;;;;;;;1.20;0.50;;;14.80;68.20;;;;;;5000787;28;20057;-74
2022/10/10 05:11:59;;;;;;;0.80;0.52;;;14.70;67.90;;;;;;4998789;28;20367;-75
2022/10/10 05:14:25;;;;;;;1.25;0.50;;;14.60;67.80;;;;;;5003635;28;20524;-75
2022/10/10 05:16:52;;;;;;;1.33;0.50;;;14.60;67.80;;;;;;5009516;28;20080;-75
2022/10/10 05:19:18;;;;;;;1.50;0.50;;;14.60;67.80;;;;;;4977071;28;20049;-75
2022/10/10 05:21:44;;;;;;;5.72;1.55;;;14.60;67.80;;;;;;5000326;28;20026;-76
2022/10/10 05:24:10;;;;;;;3.22;0.80;;;14.50;67.70;;;;;;4992792;28;20181;-75
2022/10/10 05:26:36;;;;;;;2.35;0.63;;;14.50;67.70;;;;;;4983279;28;20073;-75
2022/10/10 05:29:05;;;;;;;3.75;0.52;;;14.40;67.60;;;;;;5000320;28;20038;-75
2022/10/10 05:31:31;;;;;;;2.67;0.90;;;14.40;67.60;;;;;;4996049;28;20030;-80
2022/10/10 05:33:57;;;;;;;2.25;0.98;;;14.40;67.60;;;;;;4992598;28;20033;-81
2022/10/10 05:36:23;;;;;;;3.88;1.23;;;14.40;67.60;;;;;;4985271;28;20027;-78
2022/10/10 05:38:49;;;;;;;2.85;1.40;;;14.30;67.30;;;;;;4990679;28;20497;-78
2022/10/10 05:41:15;;;;;;;3.17;0.80;;;14.30;67.30;;;;;;4962683;28;20034;-77
2022/10/10 05:43:41;;;;;;;5.05;1.02;;;14.20;67.10;;;;;;4971120;28;20046;-79
2022/10/10 05:46:07;;;;;;;3.30;1.02;;;14.20;67.10;;;;;;4984683;28;20042;-78
2022/10/10 05:48:33;;;;;;;4.88;1.13;;;14.10;66.90;;;;;;4987251;28;20057;-77
2022/10/10 05:51:00;;;;;;;4.10;0.90;;;14.10;66.90;;;;;;4983535;28;20026;-76
2022/10/10 05:53:28;;;;;;;12.75;2.75;;;14.10;66.90;;;;;;4989920;28;20018;-76
2022/10/10 05:55:54;;;;;;;6.05;1.02;;;14.00;66.70;;;;;;4988497;28;20034;-80
2022/10/10 05:58:20;;;;;;;4.35;1.30;;;14.00;66.70;;;;;;4991825;28;20076;-77
2022/10/10 06:00:47;;;;;;;1.92;0.65;;;14.00;66.80;;;;;;4989484;28;20088;-77
2022/10/10 06:03:15;;;;;;;4.82;1.65;;;14.00;67.20;;;;;;4991797;28;20030;-76
2022/10/10 06:05:44;;;;;;;4.22;1.30;;;13.90;67.20;;;;;;4988873;28;20034;-77
2022/10/10 06:08:12;;;;;;;6.85;1.35;;;14.00;67.40;;;;;;4979983;28;20038;-78
2022/10/10 06:10:45;;;;;;;5.95;1.75;;;13.90;67.20;;;;;;4988046;28;20034;-78
2022/10/10 06:13:13;;;;;;;2.20;1.00;;;13.90;67.20;;;;;;4993846;28;20138;-77
2022/10/10 06:15:40;;;;;;;4.68;1.17;;;13.90;67.20;;;;;;4979856;28;20060;-77
2022/10/10 06:18:08;;;;;;;5.65;2.17;;;13.90;67.10;;;;;;4989859;28;20026;-77
2022/10/10 06:20:37;;;;;;;6.18;1.65;;;13.80;67.00;;;;;;4987952;28;20038;-82
2022/10/10 06:23:05;;;;;;;8.35;1.30;;;13.80;67.00;;;;;;4987318;28;20584;-77
2022/10/10 06:25:33;;;;;;;4.45;1.60;;;13.70;66.90;;;;;;4980831;28;20031;-77
2022/10/10 06:28:01;;;;;;;6.15;1.42;;;13.70;66.90;;;;;;4986193;28;20042;-76
2022/10/10 06:30:27;;;;;;;7.32;2.38;;;13.60;66.70;;;;;;4987869;28;20414;-82
2022/10/10 06:32:53;;;;;;;2.83;0.93;;;13.60;66.70;;;;;;4987933;28;20038;-81
2022/10/10 06:35:19;;;;;;;8.88;1.55;;;13.60;66.70;;;;;;4987417;28;20058;-75
2022/10/10 06:37:45;;;;;;;6.80;1.92;;;13.60;66.70;;;;;;4980759;28;20038;-75
2022/10/10 06:40:11;;;;;;;7.60;1.40;;;13.60;67.10;;;;;;4968889;28;20050;-75
2022/10/10 06:42:37;;;;;;;6.97;1.20;;;13.60;67.40;;;;;;4985548;28;20038;-75
2022/10/10 06:45:04;;;;;;;7.15;1.55;;;13.70;67.70;;;;;;5000912;28;20042;-76
2022/10/10 06:47:30;;;;;;;9.65;2.65;;;13.80;67.80;;;;;;4990353;28;20110;-75
2022/10/10 06:49:57;;;;;;;5.80;1.45;;;13.90;68.40;;;;;;4986378;28;20037;-81
2022/10/10 06:52:24;;;;;;;6.20;1.20;;;13.90;67.60;;;;;;4986465;28;20030;-79
2022/10/10 06:54:51;;;;;;;5.65;1.52;;;14.00;67.40;;;;;;4986712;28;20026;-81
2022/10/10 06:57:17;;;;;;;6.97;1.15;;;13.90;67.20;;;;;;4988370;28;20026;-81
2022/10/10 06:59:44;;;;;;;6.20;1.25;;;13.90;66.80;;;;;;4995120;28;20041;-81
2022/10/10 07:02:14;;;;;;;10.40;1.60;;;13.80;66.50;;;;;;4988037;28;20034;-81
2022/10/10 07:04:42;;;;;;;6.93;2.35;;;13.80;66.30;;;;;;4989363;28;20037;-81
2022/10/10 07:07:08;;;;;;;8.57;1.63;;;13.70;66.00;;;;;;4990876;28;20073;-76
2022/10/10 07:09:34;;;;;;;3.88;1.17;;;13.70;65.90;;;;;;4987826;28;20022;-74
2022/10/10 07:12:00;;;;;;;6.50;1.58;;;13.60;65.70;;;;;;4990741;28;20035;-76
2022/10/10 07:14:26;;;;;;;5.43;1.27;;;13.60;65.70;;;;;;4990365;28;20314;-80
2022/10/10 07:16:52;;;;;;;7.63;2.38;;;13.60;65.70;;;;;;4989818;28;20137;-76
2022/10/10 07:19:20;;;;;;;7.20;2.83;;;13.60;65.70;;;;;;4987324;28;20394;-77
2022/10/10 07:21:46;;;;;;;10.88;2.95;;;13.50;65.40;;;;;;4990684;28;20031;-75
2022/10/10 07:24:12;;;;;;;5.55;2.00;;;13.50;65.40;;;;;;4984774;28;20193;-76
2022/10/10 07:26:38;;;;;;;7.18;1.33;;;13.50;65.30;;;;;;4989824;28;20121;-75
2022/10/10 07:29:05;;;;;;;5.75;1.55;;;13.40;65.00;;;;;;4995975;28;20042;-75
2022/10/10 07:31:32;;;;;;;9.93;2.05;;;13.50;65.20;;;;;;4995601;28;20032;-76
2022/10/10 07:33:58;;;;;;;6.90;1.52;;;13.50;65.20;;;;;;4998522;28;20331;-75
2022/10/10 07:36:24;;;;;;;9.95;2.15;;;13.40;65.00;;;;;;4990267;28;20026;-76
2022/10/10 07:38:51;;;;;;;6.60;1.42;;;13.40;64.90;;;;;;4990074;28;20038;-75
2022/10/10 07:41:18;;;;;;;7.32;1.25;;;13.40;64.90;;;;;;4991840;28;20423;-75
2022/10/10 07:43:45;;;;;;;4.78;1.70;;;13.40;64.80;;;;;;4990839;28;20034;-77
2022/10/10 07:46:16;;;;;;;7.30;1.80;;;13.40;64.70;;;;;;4991692;28;21682;-76
2022/10/10 07:48:43;;;;;;;7.53;2.20;;;13.40;64.70;;;;;;4988763;28;20038;-76
2022/10/10 07:51:09;;;;;;;4.85;1.35;;;13.40;64.60;;;;;;4992050;28;20030;-79
2022/10/10 07:53:35;;;;;;;4.38;1.25;;;13.40;64.70;;;;;;4993790;28;20393;-76
2022/10/10 07:56:06;;;;;;;9.60;1.80;;;13.40;64.80;;;;;;4992352;28;20033;-78
2022/10/10 07:58:33;;;;;;;6.72;1.95;;;13.50;65.00;;;;;;4966608;28;20042;-74
2022/10/10 08:01:07;;;;;;;7.18;1.50;;;13.50;64.90;;;;;;4989585;28;20214;-76
2022/10/10 08:03:35;;;;;;;5.95;1.15;;;13.60;64.90;;;;;;4979399;28;20027;-77
2022/10/10 08:06:07;;;;;;;9.32;1.33;;;13.60;64.60;;;;;;4991675;28;20064;-76
2022/10/10 08:08:34;;;;;;;7.15;2.95;;;13.60;64.20;;;;;;4996479;28;20042;-77
2022/10/10 08:11:02;;;;;;;8.85;1.48;;;13.60;64.00;;;;;;4990432;28;20038;-75
2022/10/10 08:13:28;;;;;;;9.65;1.40;;;13.60;63.90;;;;;;4990816;28;20022;-76
2022/10/10 08:15:55;;;;;;;7.38;1.35;;;13.60;63.80;;;;;;4988508;28;20045;-75
2022/10/10 08:18:22;;;;;;;5.25;1.50;;;13.60;63.60;;;;;;4988018;28;20057;-74
2022/10/10 08:20:58;;;;;;;6.22;1.52;;;13.50;63.30;;;;;;4981826;28;20053;-75
2022/10/10 08:23:24;;;;;;;7.30;1.98;;;13.50;63.20;;;;;;4988317;28;20203;-74
2022/10/10 08:25:50;;;;;;;8.48;1.27;;;13.50;63.20;;;;;;4989936;28;20038;-75
2022/10/10 08:28:15;;;;;;;6.72;1.50;;;13.50;63.10;;;;;;4988921;28;20504;-75
2022/10/10 08:30:41;;;;;;;7.22;1.40;;;13.40;62.80;;;;;;4995907;28;20034;-78
2022/10/10 08:33:07;;;;;;;5.90;1.40;;;13.40;62.70;;;;;;4992767;28;20034;-76
2022/10/10 08:35:38;;;;;;;6.55;1.45;;;13.40;62.60;;;;;;4990486;28;20120;-78
2022/10/10 08:38:05;;;;;;;6.65;1.40;;;13.40;62.50;;;;;;4989670;28;20034;-79
2022/10/10 08:40:32;;;;;;;4.65;1.55;;;13.40;62.40;;;;;;4991558;28;20068;-76
2022/10/10 08:43:04;;;;;;;6.72;2.53;;;13.40;62.30;;;;;;4988256;28;20027;-76
2022/10/10 08:45:32;;;;;;;9.43;2.47;;;13.30;62.00;;;;;;4990200;28;20057;-77
2022/10/10 08:48:05;;;;;;;5.38;1.45;;;13.30;61.90;;;;;;4989963;28;20175;-77
2022/10/10 08:50:58;;;;;;;7.90;1.95;;;13.30;61.70;;;;;;4969196;28;20056;-79
2022/10/10 08:53:34;;;;;;;7.25;1.55;;;13.30;61.70;;;;;;4999519;28;20343;-78
2022/10/10 08:56:04;;;;;;;11.38;3.00;;;13.30;61.70;;;;;;4974645;28;20042;-77
2022/10/10 08:58:41;;;;;;;6.80;1.27;;;13.30;61.50;;;;;;4993218;28;20048;-76
2022/10/10 09:01:20;;;;;;;6.43;1.27;;;13.30;61.30;;;;;;4987096;28;20066;-78
2022/10/10 09:03:54;;;;;;;6.50;1.90;;;13.30;61.20;;;;;;4988216;28;20112;-76
2022/10/10 09:06:56;;;;;;;5.53;1.27;;;13.30;61.10;;;;;;4983558;28;20332;-75
2022/10/10 09:09:45;;;;;;;6.30;1.50;;;13.30;60.90;;;;;;4984438;28;20035;-79
2022/10/10 09:12:31;;;;;;;4.40;1.50;;;13.30;60.90;;;;;;4987142;28;20034;-77
2022/10/10 09:15:13;;;;;;;5.00;1.23;;;13.30;60.80;;;;;;4990239;28;20085;-76
2022/10/10 09:17:53;;;;;;;5.07;1.40;;;13.30;60.70;;;;;;4987934;28;20046;-77
2022/10/10 09:20:37;;;;;;;5.82;1.83;;;13.30;60.60;;;;;;4967283;28;20046;-76
2022/10/10 09:23:22;;;;;;;8.90;1.63;;;13.30;60.50;;;;;;4988989;28;20034;-75
2022/10/10 09:25:48;;;;;;;8.00;1.25;;;13.30;60.40;;;;;;4985796;28;20026;-77
2022/10/10 09:28:17;;;;;;;5.32;1.50;;;13.30;60.30;;;;;;4986361;28;20057;-76
2022/10/10 09:30:51;;;;;;;5.65;1.40;;;13.30;60.20;;;;;;4988031;28;20030;-76
2022/10/10 09:33:49;;;;;;;5.20;1.38;;;13.30;60.00;;;;;;4986929;28;20029;-76
2022/10/10 09:36:24;;;;;;;7.65;3.40;;;13.30;59.90;;;;;;4985880;28;20030;-75
2022/10/10 09:39:39;;;;;;;5.57;1.50;;;13.30;59.90;;;;;;4990409;28;20049;-76
2022/10/10 09:42:13;;;;;;;8.88;1.73;;;13.40;59.90;;;;;;4994410;28;20049;-76
2022/10/10 09:44:43;;;;;;;9.32;1.92;;;13.40;59.90;;;;;;4982860;28;20035;-77
2022/10/10 09:47:14;;;;;;;5.57;2.30;;;13.40;59.90;;;;;;4986236;28;20421;-77
2022/10/10 09:49:41;;;;;;;6.03;2.10;;;13.40;59.70;;;;;;4993679;28;20050;-76
2022/10/10 09:52:16;;;;;;;8.13;2.33;;;13.40;59.70;;;;;;4994386;28;20044;-76
2022/10/10 09:54:46;;;;;;;9.10;2.10;;;13.40;60.00;;;;;;4984089;28;20050;-76
2022/10/10 09:57:15;;;;;;;7.60;1.77;;;13.40;59.50;;;;;;4989145;28;20050;-76
2022/10/10 09:59:46;;;;;;;6.22;1.80;;;13.50;59.50;;;;;;4996199;28;20048;-75
2022/10/10 10:02:18;;;;;;;6.60;1.60;;;13.50;60.00;;;;;;5004132;28;20037;-75
2022/10/10 10:04:46;;;;;;;8.85;2.42;;;13.50;59.30;;;;;;4990325;28;20038;-75
2022/10/10 10:07:26;;;;;;;5.75;1.58;;;13.50;59.20;;;;;;4986162;28;20048;-74
2022/10/10 10:10:00;;;;;;;10.52;2.05;;;13.50;59.10;;;;;;4990324;28;20038;-75
2022/10/10 10:12:39;;;;;;;11.02;2.05;;;13.60;59.20;;;;;;4986077;28;20031;-76
2022/10/10 10:15:17;;;;;;;6.90;1.88;;;13.60;59.00;;;;;;4987429;28;20065;-77
2022/10/10 10:17:43;;;;;;;7.90;1.95;;;13.60;58.80;;;;;;4988491;28;20030;-77
2022/10/10 10:20:27;;;;;;;8.63;2.53;;;13.70;59.00;;;;;;4984518;28;20050;-76
2022/10/10 10:22:54;;;;;;;6.63;1.48;;;13.70;58.80;;;;;;4988093;28;20037;-75
2022/10/10 10:25:28;;;;;;;8.15;1.45;;;13.70;59.30;;;;;;4991688;28;20056;-79
2022/10/10 10:28:18;;;;;;;6.35;1.40;;;13.80;58.80;;;;;;4978348;28;20367;-77
2022/10/10 10:30:45;;;;;;;5.57;1.77;;;13.90;58.70;;;;;;4980384;28;20072;-77
2022/10/10 10:33:45;;;;;;;9.00;1.52;;;13.90;58.80;;;;;;4986070;28;20103;-79
2022/10/10 10:36:20;;;;;;;5.82;1.42;;;13.90;58.50;;;;;;5005720;28;20056;-79
2022/10/10 10:39:30;;;;;;;12.05;2.72;;;13.90;58.40;;;;;;5007035;28;20027;-80
2022/10/10 10:42:21;;;;;;;6.15;1.75;;;14.00;58.40;;;;;;4998444;28;20312;-78
2022/10/10 10:45:12;;;;;;;6.50;1.92;;;14.00;58.30;;;;;;4999548;28;20090;-78
2022/10/10 10:47:58;;;;;;;6.07;1.55;;;14.10;58.10;;;;;;4985310;28;20464;-79
2022/10/10 10:51:16;;;;;;;7.20;1.40;;;14.10;58.00;;;;;;4998883;28;20102;-77
2022/10/10 10:54:16;;;;;;;5.43;1.42;;;14.20;58.00;;;;;;4993619;28;20084;-78
2022/10/10 10:57:21;;;;;;;9.18;1.73;;;14.20;57.90;;;;;;4990671;28;20035;-77
2022/10/10 11:00:02;;;;;;;6.22;1.95;;;14.30;57.90;;;;;;4993588;28;20197;-78
2022/10/10 11:02:52;;;;;;;8.38;1.95;;;14.30;57.80;;;;;;4991391;28;20036;-77
2022/10/10 11:05:35;;;;;;;6.97;1.77;;;14.40;57.90;;;;;;4986848;28;20027;-81
2022/10/10 11:08:33;;;;;;;8.82;1.98;;;14.40;57.80;;;;;;4993046;28;20042;-78
2022/10/10 11:11:30;;;;;;;6.70;2.17;;;14.50;57.80;;;;;;4983782;28;20152;-76
2022/10/10 11:14:19;;;;;;;8.68;2.30;;;14.60;57.90;;;;;;4987186;28;20263;-75
2022/10/10 11:16:54;;;;;;;10.15;2.95;;;14.60;57.80;;;;;;4992478;28;20034;-76
2022/10/10 11:20:03;;;;;;;8.63;2.33;;;14.70;57.80;;;;;;4988631;28;20027;-79
2022/10/10 11:22:40;;;;;;;7.72;1.92;;;14.70;57.50;;;;;;4960838;28;20038;-76
2022/10/10 11:25:22;;;;;;;6.28;1.60;;;14.80;57.60;;;;;;4990497;28;20053;-77
2022/10/10 11:28:02;;;;;;;7.65;1.50;;;14.90;57.50;;;;;;4990792;28;20045;-76
2022/10/10 11:30:34;;;;;;;7.78;2.38;;;14.90;57.30;;;;;;4986041;28;20344;-76
2022/10/10 11:33:35;;;;;;;6.97;1.80;;;14.90;57.20;;;;;;5001553;28;20351;-76
2022/10/10 11:36:27;;;;;;;4.68;1.75;;;15.00;57.20;;;;;;4959549;28;20046;-76
2022/10/10 11:39:01;;;;;;;11.65;2.20;;;15.10;57.30;;;;;;4979485;28;20048;-75
2022/10/10 11:42:00;;;;;;;5.95;1.90;;;15.10;57.20;;;;;;4975801;28;20042;-76
2022/10/10 11:44:45;;;;;;;3.97;1.77;;;15.20;57.10;;;;;;4990481;28;20044;-76
2022/10/10 11:47:30;;;;;;;4.45;1.83;;;15.20;56.90;;;;;;4976830;28;20047;-77
2022/10/10 11:50:02;;;;;;;6.55;1.60;;;15.30;57.10;;;;;;4987876;28;20049;-77
2022/10/10 11:52:45;;;;;;;11.03;2.50;;;15.30;56.90;;;;;;5004502;28;20030;-77
2022/10/10 11:55:43;;;;;;;6.97;1.67;;;15.30;56.70;;;;;;4969954;28;20038;-78
2022/10/10 11:58:09;;;;;;;7.90;1.92;;;15.40;56.80;;;;;;4980799;28;20047;-77
2022/10/10 12:00:44;;;;;;;4.43;1.70;;;15.40;56.80;;;;;;4987700;28;20492;-77
2022/10/10 12:03:12;;;;;;;7.18;1.83;;;15.40;56.60;;;;;;4993445;28;20096;-76
2022/10/10 12:05:46;;;;;;;7.68;2.28;;;15.40;56.50;;;;;;4983747;28;20035;-76
2022/10/10 12:08:24;;;;;;;6.95;2.25;;;15.50;56.60;;;;;;4986773;28;20038;-75
2022/10/10 12:11:09;;;;;;;5.80;2.63;;;15.60;56.60;;;;;;4990498;28;20314;-75
2022/10/10 12:13:45;;;;;;;5.18;1.30;;;15.60;56.30;;;;;;4990673;28;20049;-78
2022/10/10 12:16:18;;;;;;;5.25;1.70;;;15.70;56.40;;;;;;4980351;28;20048;-79
2022/10/10 12:18:45;;;;;;;7.55;2.38;;;15.80;56.30;;;;;;4991462;28;20496;-76
2022/10/10 12:21:13;;;;;;;5.50;1.55;;;15.90;56.30;;;;;;4990978;28;20057;-76
2022/10/10 12:23:59;;;;;;;7.10;1.60;;;16.00;56.20;;;;;;4974686;28;20092;-76
2022/10/10 12:26:54;;;;;;;6.10;1.30;;;16.20;56.20;;;;;;4988349;28;20030;-77
2022/10/10 12:30:08;;;;;;;4.57;1.60;;;16.30;55.80;;;;;;4990252;28;20041;-76
2022/10/10 12:32:40;;;;;;;7.40;2.38;;;16.50;55.90;;;;;;4967870;28;20034;-77
2022/10/10 12:35:39;;;;;;;6.03;1.98;;;16.70;55.50;;;;;;4992014;28;20073;-77
2022/10/10 12:38:21;;;;;;;5.70;1.50;;;16.90;55.70;;;;;;4991835;28;20084;-77
2022/10/10 12:40:56;;;;;;;4.93;2.22;;;17.10;55.80;;;;;;4984502;28;20076;-76
2022/10/10 12:43:49;;;;;;;5.18;1.33;;;17.20;55.60;;;;;;4990660;28;20028;-77
2022/10/10 12:46:22;;;;;;;5.20;1.70;;;17.30;55.30;;;;;;4975333;28;20027;-77
2022/10/10 12:49:23;;;;;;;6.78;1.27;;;17.30;55.20;;;;;;4982091;28;20064;-76
2022/10/10 12:52:07;;;;;;;2.95;1.17;;;17.40;54.90;;;;;;4988919;28;20517;-77
2022/10/10 12:54:42;;;;;;;6.63;1.60;;;17.50;54.90;;;;;;4987098;28;20034;-76
2022/10/10 12:57:29;;;;;;;5.25;1.50;;;17.60;54.80;;;;;;4990021;28;20084;-75
2022/10/10 12:59:55;;;;;;;4.70;1.23;;;17.70;54.70;;;;;;4984401;28;20092;-76
2022/10/10 13:02:25;;;;;;;6.22;1.35;;;17.70;54.40;;;;;;4990454;28;20027;-78
2022/10/10 13:04:58;;;;;;;5.90;1.60;;;17.80;54.30;;;;;;4957054;28;20038;-78
2022/10/10 13:07:25;;;;;;;6.88;1.80;;;17.80;53.90;;;;;;4990156;28;20256;-76
2022/10/10 13:09:53;;;;;;;5.13;2.10;;;17.90;54.50;;;;;;4982333;28;20045;-75
2022/10/10 13:12:25;;;;;;;6.40;2.08;;;18.00;53.70;;;;;;4974221;28;20643;-75
2022/10/10 13:14:51;;;;;;;7.03;2.13;;;18.10;53.60;;;;;;4990656;28;20649;-76